GLO9619 SBGR-SBVT
Flight info
| Callsign | GLO9619 |
|---|---|
| Flight time | 1h 10m |
| Altitude | 35000 |
| Route | UREMI UZ42 IMDAB DCT SEGLI DCT TODET |
| Aircraft | B738/M-SDE2E3FGHIRWXY/LB1 |
Departure
| Time | 2026-05-06 18:45 |
|---|---|
| Airport | São Paulo/Guarulhos–Governor André Franco Montoro International Airport (SBGR) |
Arrival
| Time | 2026-05-06 19:56 |
|---|---|
| Airport | Eurico de Aguiar Salles International Airport (SBVT) |
| Time | Latitude | Longitude | Altitude | Speed | Heading |
|---|---|---|---|---|---|
| 2026-05-06 17:25 | -23.42914 | -46.48386 | 2447 ft | 0 kts | 77° |
| 2026-05-06 18:27 | -23.42917 | -46.48400 | 2447 ft | 2 kts | 76° |
| 2026-05-06 18:27 | -23.42921 | -46.48416 | 2447 ft | 2 kts | 77° |
| 2026-05-06 18:28 | -23.42924 | -46.48432 | 2446 ft | 2 kts | 77° |
| 2026-05-06 18:28 | -23.42927 | -46.48448 | 2446 ft | 2 kts | 88° |
| 2026-05-06 18:28 | -23.42925 | -46.48464 | 2446 ft | 2 kts | 111° |
| 2026-05-06 18:28 | -23.42917 | -46.48478 | 2446 ft | 2 kts | 133° |
| 2026-05-06 18:29 | -23.42906 | -46.48488 | 2446 ft | 2 kts | 154° |
| 2026-05-06 18:29 | -23.42892 | -46.48493 | 2446 ft | 1 kts | 175° |
| 2026-05-06 18:29 | -23.42886 | -46.48493 | 2446 ft | 1 kts | 181° |
| 2026-05-06 18:29 | -23.42884 | -46.48493 | 2446 ft | 0 kts | 179° |
| 2026-05-06 18:35 | -23.42906 | -46.48493 | 2446 ft | 5 kts | 179° |
| 2026-05-06 18:36 | -23.42942 | -46.48492 | 2445 ft | 4 kts | 179° |
| 2026-05-06 18:36 | -23.42974 | -46.48492 | 2444 ft | 4 kts | 180° |
| 2026-05-06 18:36 | -23.43022 | -46.48488 | 2444 ft | 10 kts | 167° |
| 2026-05-06 18:36 | -23.43086 | -46.48467 | 2444 ft | 8 kts | 162° |
| 2026-05-06 18:37 | -23.43128 | -46.48453 | 2444 ft | 0 kts | 165° |
| 2026-05-06 18:39 | -23.43135 | -46.48451 | 2445 ft | 2 kts | 165° |
| 2026-05-06 18:40 | -23.43254 | -46.48416 | 2447 ft | 9 kts | 164° |
| 2026-05-06 18:40 | -23.43298 | -46.48403 | 2448 ft | 2 kts | 165° |
| 2026-05-06 18:40 | -23.43300 | -46.48402 | 2448 ft | 0 kts | 165° |
| 2026-05-06 18:41 | -23.43333 | -46.48392 | 2449 ft | 7 kts | 164° |
| 2026-05-06 18:41 | -23.43373 | -46.48380 | 2450 ft | 4 kts | 163° |
| 2026-05-06 18:41 | -23.43396 | -46.48373 | 2451 ft | 4 kts | 162° |
| 2026-05-06 18:41 | -23.43428 | -46.48356 | 2452 ft | 1 kts | 146° |
| 2026-05-06 18:42 | -23.43429 | -46.48355 | 2452 ft | 0 kts | 146° |
| 2026-05-06 18:42 | -23.43428 | -46.48356 | 2452 ft | 0 kts | 146° |
| 2026-05-06 18:42 | -23.43435 | -46.48322 | 2452 ft | 6 kts | 52° |
| 2026-05-06 18:43 | -23.43413 | -46.48278 | 2453 ft | 6 kts | 71° |
| 2026-05-06 18:43 | -23.43402 | -46.48241 | 2453 ft | 4 kts | 73° |
| 2026-05-06 18:43 | -23.43399 | -46.48229 | 2453 ft | 0 kts | 74° |
| 2026-05-06 18:43 | -23.43399 | -46.48226 | 2453 ft | 0 kts | 74° |
| 2026-05-06 18:44 | -23.43398 | -46.48223 | 2453 ft | 0 kts | 74° |
| 2026-05-06 18:44 | -23.43397 | -46.48219 | 2453 ft | 0 kts | 74° |
| 2026-05-06 18:44 | -23.43395 | -46.48212 | 2453 ft | 3 kts | 74° |
| 2026-05-06 18:44 | -23.43343 | -46.48019 | 2453 ft | 62 kts | 72° |
| 2026-05-06 18:45 | -23.43152 | -46.47312 | 2453 ft | 130 kts | 73° |
| 2026-05-06 18:45 | -23.42837 | -46.46169 | 2491 ft | 179 kts | 72° |
| 2026-05-06 18:45 | -23.42413 | -46.44870 | 3024 ft | 190 kts | 69° |
| 2026-05-06 18:45 | -23.42092 | -46.43933 | 3267 ft | 210 kts | 67° |
| 2026-05-06 18:46 | -23.41332 | -46.41808 | 3985 ft | 236 kts | 63° |
| 2026-05-06 18:46 | -23.40334 | -46.40279 | 4204 ft | 261 kts | 48° |
| 2026-05-06 18:46 | -23.39333 | -46.38738 | 4654 ft | 240 kts | 66° |
| 2026-05-06 18:46 | -23.38822 | -46.37031 | 5279 ft | 240 kts | 73° |
| 2026-05-06 18:47 | -23.38593 | -46.35186 | 5593 ft | 263 kts | 96° |
| 2026-05-06 18:47 | -23.39347 | -46.33309 | 6077 ft | 278 kts | 128° |
| 2026-05-06 18:47 | -23.40622 | -46.31766 | 6741 ft | 283 kts | 127° |
| 2026-05-06 18:47 | -23.41694 | -46.29950 | 7377 ft | 287 kts | 114° |
| 2026-05-06 18:48 | -23.42524 | -46.27938 | 7912 ft | 295 kts | 110° |
| 2026-05-06 18:48 | -23.43267 | -46.25894 | 7952 ft | 291 kts | 109° |
| 2026-05-06 18:48 | -23.43892 | -46.23814 | 7966 ft | 287 kts | 101° |
| 2026-05-06 18:48 | -23.44285 | -46.21674 | 7988 ft | 293 kts | 98° |
| 2026-05-06 18:49 | -23.44665 | -46.19470 | 8604 ft | 299 kts | 99° |
| 2026-05-06 18:49 | -23.45061 | -46.17258 | 9393 ft | 300 kts | 99° |
| 2026-05-06 18:49 | -23.45452 | -46.15033 | 10083 ft | 304 kts | 98° |
| 2026-05-06 18:49 | -23.45849 | -46.12736 | 10513 ft | 319 kts | 99° |
| 2026-05-06 18:50 | -23.46271 | -46.10279 | 10683 ft | 341 kts | 99° |
| 2026-05-06 18:50 | -23.46719 | -46.07671 | 11211 ft | 351 kts | 99° |
| 2026-05-06 18:50 | -23.47175 | -46.05054 | 11782 ft | 358 kts | 99° |
| 2026-05-06 18:50 | -23.47642 | -46.02376 | 12404 ft | 364 kts | 99° |
| 2026-05-06 18:51 | -23.48114 | -45.99660 | 13037 ft | 369 kts | 99° |
| 2026-05-06 18:51 | -23.48590 | -45.96901 | 13151 ft | 373 kts | 99° |
| 2026-05-06 18:51 | -23.49016 | -45.94130 | 13180 ft | 367 kts | 93° |
| 2026-05-06 18:51 | -23.48814 | -45.91381 | 13312 ft | 371 kts | 74° |
| 2026-05-06 18:52 | -23.48109 | -45.88683 | 14105 ft | 370 kts | 71° |
| 2026-05-06 18:52 | -23.47425 | -45.85972 | 14695 ft | 376 kts | 73° |
| 2026-05-06 18:52 | -23.46777 | -45.83262 | 15425 ft | 377 kts | 73° |
| 2026-05-06 18:52 | -23.46106 | -45.80493 | 16065 ft | 380 kts | 72° |
| 2026-05-06 18:53 | -23.45421 | -45.77704 | 16693 ft | 383 kts | 72° |
| 2026-05-06 18:53 | -23.44725 | -45.74868 | 17285 ft | 388 kts | 72° |
| 2026-05-06 18:53 | -23.44029 | -45.72028 | 17871 ft | 391 kts | 72° |
| 2026-05-06 18:53 | -23.43329 | -45.69181 | 18430 ft | 395 kts | 72° |
| 2026-05-06 18:54 | -23.42854 | -45.67245 | 18805 ft | 397 kts | 72° |
| 2026-05-06 18:54 | -23.41898 | -45.63359 | 19535 ft | 402 kts | 72° |
| 2026-05-06 18:54 | -23.41173 | -45.60415 | 20058 ft | 406 kts | 72° |
| 2026-05-06 18:54 | -23.40446 | -45.57462 | 20584 ft | 409 kts | 72° |
| 2026-05-06 18:55 | -23.39701 | -45.54442 | 21069 ft | 413 kts | 72° |
| 2026-05-06 18:55 | -23.38961 | -45.51443 | 21570 ft | 416 kts | 72° |
| 2026-05-06 18:55 | -23.38255 | -45.48370 | 22045 ft | 420 kts | 74° |
| 2026-05-06 18:55 | -23.37606 | -45.45245 | 22500 ft | 424 kts | 75° |
| 2026-05-06 18:56 | -23.36962 | -45.42146 | 22952 ft | 426 kts | 74° |
| 2026-05-06 18:56 | -23.36510 | -45.40011 | 23242 ft | 429 kts | 74° |
| 2026-05-06 18:56 | -23.35609 | -45.35789 | 23816 ft | 433 kts | 74° |
| 2026-05-06 18:56 | -23.34930 | -45.32603 | 24231 ft | 436 kts | 74° |
| 2026-05-06 18:57 | -23.34240 | -45.29374 | 24625 ft | 439 kts | 74° |
| 2026-05-06 18:57 | -23.33552 | -45.26157 | 25016 ft | 441 kts | 74° |
| 2026-05-06 18:57 | -23.32849 | -45.22877 | 25403 ft | 444 kts | 74° |
| 2026-05-06 18:57 | -23.32149 | -45.19618 | 25768 ft | 447 kts | 74° |
| 2026-05-06 18:58 | -23.31675 | -45.17409 | 26012 ft | 449 kts | 74° |
| 2026-05-06 18:58 | -23.30731 | -45.13022 | 26477 ft | 452 kts | 74° |
| 2026-05-06 18:58 | -23.30004 | -45.09647 | 26821 ft | 455 kts | 74° |
| 2026-05-06 18:58 | -23.29289 | -45.06332 | 27137 ft | 458 kts | 74° |
| 2026-05-06 18:59 | -23.28556 | -45.02941 | 27466 ft | 460 kts | 74° |
| 2026-05-06 18:59 | -23.27822 | -44.99543 | 27782 ft | 463 kts | 75° |
| 2026-05-06 18:59 | -23.27086 | -44.96143 | 28097 ft | 465 kts | 75° |
| 2026-05-06 18:59 | -23.26337 | -44.92687 | 28414 ft | 467 kts | 75° |
| 2026-05-06 19:00 | -23.25588 | -44.89231 | 28720 ft | 470 kts | 75° |
| 2026-05-06 19:00 | -23.24835 | -44.85767 | 29018 ft | 472 kts | 75° |
| 2026-05-06 19:00 | -23.24081 | -44.82298 | 29278 ft | 474 kts | 75° |
| 2026-05-06 19:00 | -23.23581 | -44.80000 | 29501 ft | 475 kts | 75° |
| 2026-05-06 19:01 | -23.22562 | -44.75323 | 29884 ft | 477 kts | 75° |
| 2026-05-06 19:01 | -23.21801 | -44.71834 | 30154 ft | 479 kts | 75° |
| 2026-05-06 19:01 | -23.21026 | -44.68287 | 30417 ft | 481 kts | 75° |
| 2026-05-06 19:01 | -23.20220 | -44.64778 | 30664 ft | 482 kts | 72° |
| 2026-05-06 19:02 | -23.19120 | -44.61331 | 30911 ft | 482 kts | 66° |
| 2026-05-06 19:02 | -23.18275 | -44.59140 | 31207 ft | 479 kts | 64° |
| 2026-05-06 19:02 | -23.16523 | -44.54706 | 31727 ft | 477 kts | 65° |
| 2026-05-06 19:02 | -23.15239 | -44.51383 | 32036 ft | 477 kts | 65° |
| 2026-05-06 19:03 | -23.13964 | -44.48090 | 32387 ft | 476 kts | 65° |
| 2026-05-06 19:03 | -23.13101 | -44.45882 | 32603 ft | 475 kts | 64° |
| 2026-05-06 19:03 | -23.11369 | -44.41491 | 33010 ft | 475 kts | 64° |
| 2026-05-06 19:03 | -23.10074 | -44.38221 | 33314 ft | 474 kts | 64° |
| 2026-05-06 19:04 | -23.08763 | -44.34918 | 33646 ft | 473 kts | 64° |
| 2026-05-06 19:04 | -23.07903 | -44.32755 | 33834 ft | 473 kts | 64° |
| 2026-05-06 19:04 | -23.06163 | -44.28390 | 34209 ft | 472 kts | 64° |
| 2026-05-06 19:04 | -23.04861 | -44.25129 | 34492 ft | 471 kts | 64° |
| 2026-05-06 19:05 | -23.03570 | -44.21901 | 34767 ft | 470 kts | 64° |
| 2026-05-06 19:05 | -23.02260 | -44.18628 | 35078 ft | 468 kts | 64° |
| 2026-05-06 19:05 | -23.00965 | -44.15398 | 35097 ft | 470 kts | 64° |
| 2026-05-06 19:06 | -22.98369 | -44.08930 | 35101 ft | 464 kts | 64° |
| 2026-05-06 19:06 | -22.95812 | -44.02565 | 35101 ft | 459 kts | 64° |
| 2026-05-06 19:07 | -22.93267 | -43.96243 | 35101 ft | 457 kts | 64° |
| 2026-05-06 19:07 | -22.90715 | -43.89913 | 35101 ft | 455 kts | 64° |
| 2026-05-06 19:08 | -22.88604 | -43.84684 | 35101 ft | 453 kts | 64° |
| 2026-05-06 19:08 | -22.86095 | -43.78473 | 35101 ft | 452 kts | 64° |
| 2026-05-06 19:09 | -22.83150 | -43.71196 | 35101 ft | 453 kts | 64° |
| 2026-05-06 19:09 | -22.80625 | -43.64967 | 35101 ft | 453 kts | 64° |
| 2026-05-06 19:10 | -22.78513 | -43.59760 | 35101 ft | 453 kts | 64° |
| 2026-05-06 19:10 | -22.75552 | -43.52472 | 35101 ft | 453 kts | 64° |
| 2026-05-06 19:11 | -22.73021 | -43.46252 | 35102 ft | 452 kts | 64° |
| 2026-05-06 19:11 | -22.70908 | -43.41076 | 35101 ft | 453 kts | 64° |
| 2026-05-06 19:12 | -22.68370 | -43.34844 | 35101 ft | 453 kts | 64° |
| 2026-05-06 19:12 | -22.65883 | -43.28751 | 35101 ft | 452 kts | 64° |
| 2026-05-06 19:13 | -22.63416 | -43.22716 | 35101 ft | 452 kts | 64° |
| 2026-05-06 19:13 | -22.61641 | -43.18381 | 35101 ft | 452 kts | 64° |
| 2026-05-06 19:14 | -22.59114 | -43.12213 | 35099 ft | 451 kts | 64° |
| 2026-05-06 19:14 | -22.56568 | -43.06008 | 35100 ft | 451 kts | 64° |
| 2026-05-06 19:15 | -22.54037 | -42.99829 | 35101 ft | 450 kts | 65° |
| 2026-05-06 19:15 | -22.51082 | -42.92645 | 35099 ft | 450 kts | 65° |
| 2026-05-06 19:16 | -22.48550 | -42.86500 | 35095 ft | 450 kts | 65° |
| 2026-05-06 19:16 | -22.45998 | -42.80311 | 35094 ft | 450 kts | 65° |
| 2026-05-06 19:17 | -22.43453 | -42.74149 | 35095 ft | 450 kts | 65° |
| 2026-05-06 19:17 | -22.41344 | -42.69050 | 35101 ft | 450 kts | 65° |
| 2026-05-06 19:18 | -22.38369 | -42.61866 | 35111 ft | 450 kts | 65° |
| 2026-05-06 19:18 | -22.36234 | -42.56718 | 35117 ft | 450 kts | 65° |
| 2026-05-06 19:19 | -22.33263 | -42.49562 | 35125 ft | 450 kts | 65° |
| 2026-05-06 19:19 | -22.31140 | -42.44456 | 35128 ft | 450 kts | 64° |
| 2026-05-06 19:20 | -22.27971 | -42.38677 | 35130 ft | 447 kts | 52° |
| 2026-05-06 19:20 | -22.23628 | -42.32422 | 35128 ft | 447 kts | 52° |
| 2026-05-06 19:21 | -22.19935 | -42.27050 | 35128 ft | 447 kts | 51° |
| 2026-05-06 19:21 | -22.16803 | -42.22560 | 35128 ft | 447 kts | 51° |
| 2026-05-06 19:22 | -22.13079 | -42.17244 | 35128 ft | 447 kts | 51° |
| 2026-05-06 19:22 | -22.08693 | -42.11008 | 35128 ft | 447 kts | 51° |
| 2026-05-06 19:23 | -22.04924 | -42.05671 | 35128 ft | 447 kts | 51° |
| 2026-05-06 19:23 | -22.01791 | -42.01249 | 35128 ft | 448 kts | 51° |
| 2026-05-06 19:24 | -21.97402 | -41.95042 | 35128 ft | 447 kts | 51° |
| 2026-05-06 19:24 | -21.94258 | -41.90603 | 35130 ft | 447 kts | 51° |
| 2026-05-06 19:25 | -21.89850 | -41.84388 | 35128 ft | 447 kts | 51° |
| 2026-05-06 19:25 | -21.86064 | -41.79055 | 35128 ft | 447 kts | 51° |
| 2026-05-06 19:26 | -21.82294 | -41.73752 | 35128 ft | 447 kts | 51° |
| 2026-05-06 19:26 | -21.79159 | -41.69346 | 35128 ft | 447 kts | 51° |
| 2026-05-06 19:27 | -21.76741 | -41.65948 | 35128 ft | 447 kts | 51° |
| 2026-05-06 19:27 | -21.73178 | -41.60948 | 35128 ft | 447 kts | 51° |
| 2026-05-06 19:28 | -21.69400 | -41.55650 | 35128 ft | 447 kts | 51° |
| 2026-05-06 19:28 | -21.66244 | -41.51228 | 35128 ft | 447 kts | 51° |
| 2026-05-06 19:29 | -21.62474 | -41.45951 | 35128 ft | 447 kts | 51° |
| 2026-05-06 19:29 | -21.58692 | -41.40663 | 35128 ft | 447 kts | 51° |
| 2026-05-06 19:30 | -21.54918 | -41.35390 | 35128 ft | 447 kts | 51° |
| 2026-05-06 19:30 | -21.51800 | -41.31050 | 35127 ft | 446 kts | 50° |
| 2026-05-06 19:31 | -21.47522 | -41.26300 | 35129 ft | 444 kts | 38° |
| 2026-05-06 19:31 | -21.40431 | -41.19953 | 35086 ft | 439 kts | 38° |
| 2026-05-06 19:32 | -21.38897 | -41.18568 | 34867 ft | 440 kts | 38° |
| 2026-05-06 19:32 | -21.36538 | -41.16456 | 34350 ft | 436 kts | 38° |
| 2026-05-06 19:32 | -21.34238 | -41.14410 | 33815 ft | 432 kts | 38° |
| 2026-05-06 19:32 | -21.31938 | -41.12369 | 33265 ft | 428 kts | 38° |
| 2026-05-06 19:33 | -21.28893 | -41.09673 | 32499 ft | 424 kts | 38° |
| 2026-05-06 19:33 | -21.27389 | -41.08345 | 32083 ft | 423 kts | 38° |
| 2026-05-06 19:33 | -21.25152 | -41.06373 | 31464 ft | 421 kts | 38° |
| 2026-05-06 19:33 | -21.22156 | -41.03735 | 30630 ft | 418 kts | 38° |
| 2026-05-06 19:34 | -21.20646 | -41.02406 | 30238 ft | 416 kts | 38° |
| 2026-05-06 19:34 | -21.18427 | -41.00454 | 29685 ft | 412 kts | 38° |
| 2026-05-06 19:34 | -21.16225 | -40.98518 | 29133 ft | 409 kts | 38° |
| 2026-05-06 19:34 | -21.13333 | -40.95977 | 28400 ft | 404 kts | 38° |
| 2026-05-06 19:35 | -21.11899 | -40.94720 | 28029 ft | 402 kts | 38° |
| 2026-05-06 19:35 | -21.09696 | -40.92857 | 27530 ft | 403 kts | 38° |
| 2026-05-06 19:35 | -21.07536 | -40.90978 | 27029 ft | 400 kts | 40° |
| 2026-05-06 19:35 | -21.04724 | -40.88469 | 26364 ft | 395 kts | 40° |
| 2026-05-06 19:36 | -21.03314 | -40.87221 | 26029 ft | 392 kts | 40° |
| 2026-05-06 19:36 | -21.01244 | -40.85400 | 25534 ft | 388 kts | 40° |
| 2026-05-06 19:36 | -20.98467 | -40.82961 | 24862 ft | 383 kts | 40° |
| 2026-05-06 19:36 | -20.96428 | -40.81172 | 24372 ft | 379 kts | 40° |
| 2026-05-06 19:37 | -20.95073 | -40.79984 | 24022 ft | 377 kts | 40° |
| 2026-05-06 19:37 | -20.93063 | -40.78223 | 23467 ft | 375 kts | 40° |
| 2026-05-06 19:37 | -20.91044 | -40.76455 | 22883 ft | 374 kts | 40° |
| 2026-05-06 19:37 | -20.89028 | -40.74691 | 22315 ft | 372 kts | 40° |
| 2026-05-06 19:38 | -20.86377 | -40.72374 | 21609 ft | 368 kts | 40° |
| 2026-05-06 19:38 | -20.85055 | -40.71218 | 21256 ft | 366 kts | 41° |
| 2026-05-06 19:38 | -20.83084 | -40.69510 | 20704 ft | 365 kts | 39° |
| 2026-05-06 19:38 | -20.81025 | -40.67973 | 20239 ft | 361 kts | 33° |
| 2026-05-06 19:39 | -20.78834 | -40.66732 | 19913 ft | 353 kts | 25° |
| 2026-05-06 19:39 | -20.75847 | -40.65400 | 19306 ft | 349 kts | 24° |
| 2026-05-06 19:39 | -20.73597 | -40.64383 | 18813 ft | 347 kts | 25° |
| 2026-05-06 19:39 | -20.71423 | -40.63394 | 18443 ft | 342 kts | 24° |
| 2026-05-06 19:40 | -20.69960 | -40.62736 | 18087 ft | 343 kts | 24° |
| 2026-05-06 19:40 | -20.67049 | -40.61445 | 17530 ft | 338 kts | 24° |
| 2026-05-06 19:40 | -20.64877 | -40.60484 | 17181 ft | 335 kts | 24° |
| 2026-05-06 19:40 | -20.63456 | -40.59855 | 16965 ft | 335 kts | 24° |
| 2026-05-06 19:41 | -20.61291 | -40.58901 | 16588 ft | 337 kts | 24° |
| 2026-05-06 19:41 | -20.59129 | -40.57949 | 16074 ft | 338 kts | 24° |
| 2026-05-06 19:41 | -20.56248 | -40.56688 | 15421 ft | 335 kts | 22° |
| 2026-05-06 19:41 | -20.53995 | -40.56223 | 14841 ft | 328 kts | 3° |
| 2026-05-06 19:42 | -20.52505 | -40.56148 | 14595 ft | 324 kts | 8° |
| 2026-05-06 19:42 | -20.49743 | -40.54999 | 14069 ft | 322 kts | 38° |
| 2026-05-06 19:42 | -20.47960 | -40.53589 | 13676 ft | 322 kts | 34° |
| 2026-05-06 19:42 | -20.46675 | -40.52791 | 13400 ft | 317 kts | 28° |
| 2026-05-06 19:43 | -20.44750 | -40.51818 | 12996 ft | 305 kts | 26° |
| 2026-05-06 19:43 | -20.42844 | -40.50905 | 12591 ft | 295 kts | 25° |
| 2026-05-06 19:43 | -20.40864 | -40.50322 | 12017 ft | 297 kts | 8° |
| 2026-05-06 19:43 | -20.39934 | -40.50194 | 11844 ft | 294 kts | 11° |
| 2026-05-06 19:44 | -20.38039 | -40.49496 | 11445 ft | 290 kts | 34° |
| 2026-05-06 19:44 | -20.36412 | -40.48234 | 11159 ft | 286 kts | 39° |
| 2026-05-06 19:44 | -20.34726 | -40.47210 | 10835 ft | 277 kts | 18° |
| 2026-05-06 19:44 | -20.32288 | -40.46684 | 10446 ft | 265 kts | 12° |
| 2026-05-06 19:45 | -20.30475 | -40.46271 | 10145 ft | 264 kts | 14° |
| 2026-05-06 19:45 | -20.29286 | -40.45979 | 9947 ft | 265 kts | 14° |
| 2026-05-06 19:45 | -20.26919 | -40.45400 | 9576 ft | 264 kts | 14° |
| 2026-05-06 19:45 | -20.25719 | -40.45103 | 9409 ft | 263 kts | 15° |
| 2026-05-06 19:46 | -20.23946 | -40.44662 | 9159 ft | 262 kts | 15° |
| 2026-05-06 19:46 | -20.22169 | -40.44220 | 8908 ft | 262 kts | 15° |
| 2026-05-06 19:46 | -20.19813 | -40.43633 | 8585 ft | 263 kts | 15° |
| 2026-05-06 19:46 | -20.18640 | -40.43341 | 8415 ft | 262 kts | 15° |
| 2026-05-06 19:47 | -20.16277 | -40.42752 | 7999 ft | 261 kts | 15° |
| 2026-05-06 19:47 | -20.15101 | -40.42459 | 7730 ft | 263 kts | 15° |
| 2026-05-06 19:47 | -20.12720 | -40.41866 | 7198 ft | 265 kts | 14° |
| 2026-05-06 19:47 | -20.11539 | -40.41539 | 6929 ft | 265 kts | 21° |
| 2026-05-06 19:48 | -20.09571 | -40.40083 | 6388 ft | 261 kts | 56° |
| 2026-05-06 19:48 | -20.08975 | -40.38962 | 6126 ft | 259 kts | 71° |
| 2026-05-06 19:48 | -20.08410 | -40.37161 | 5736 ft | 259 kts | 75° |
| 2026-05-06 19:48 | -20.07857 | -40.35334 | 5331 ft | 260 kts | 74° |
| 2026-05-06 19:49 | -20.07302 | -40.33521 | 4933 ft | 260 kts | 74° |
| 2026-05-06 19:49 | -20.06744 | -40.31683 | 4546 ft | 260 kts | 74° |
| 2026-05-06 19:49 | -20.06040 | -40.29230 | 4073 ft | 258 kts | 81° |
| 2026-05-06 19:49 | -20.06082 | -40.27405 | 3710 ft | 244 kts | 109° |
| 2026-05-06 19:50 | -20.06542 | -40.26323 | 3495 ft | 236 kts | 122° |
| 2026-05-06 19:50 | -20.07394 | -40.24879 | 3137 ft | 229 kts | 123° |
| 2026-05-06 19:50 | -20.08219 | -40.23460 | 2770 ft | 223 kts | 123° |
| 2026-05-06 19:50 | -20.08996 | -40.22131 | 2789 ft | 199 kts | 123° |
| 2026-05-06 19:51 | -20.09690 | -40.20945 | 2805 ft | 182 kts | 124° |
| 2026-05-06 19:51 | -20.10548 | -40.19985 | 2786 ft | 181 kts | 153° |
| 2026-05-06 19:51 | -20.12151 | -40.19955 | 2791 ft | 177 kts | 204° |
| 2026-05-06 19:51 | -20.13233 | -40.20554 | 2774 ft | 176 kts | 205° |
| 2026-05-06 19:52 | -20.14316 | -40.21164 | 2517 ft | 170 kts | 206° |
| 2026-05-06 19:52 | -20.14958 | -40.21558 | 2359 ft | 157 kts | 208° |
| 2026-05-06 19:52 | -20.15860 | -40.22144 | 2170 ft | 148 kts | 209° |
| 2026-05-06 19:52 | -20.16703 | -40.22696 | 1986 ft | 138 kts | 208° |
| 2026-05-06 19:53 | -20.17523 | -40.23235 | 1801 ft | 138 kts | 208° |
| 2026-05-06 19:53 | -20.18333 | -40.23768 | 1615 ft | 138 kts | 208° |
| 2026-05-06 19:53 | -20.19156 | -40.24310 | 1410 ft | 137 kts | 208° |
| 2026-05-06 19:53 | -20.19970 | -40.24845 | 1229 ft | 138 kts | 208° |
| 2026-05-06 19:54 | -20.20779 | -40.25378 | 1034 ft | 137 kts | 208° |
| 2026-05-06 19:54 | -20.21582 | -40.25907 | 855 ft | 137 kts | 208° |
| 2026-05-06 19:54 | -20.22663 | -40.26619 | 608 ft | 136 kts | 208° |
| 2026-05-06 19:54 | -20.23475 | -40.27134 | 436 ft | 135 kts | 210° |
| 2026-05-06 19:55 | -20.23993 | -40.27500 | 297 ft | 133 kts | 209° |
| 2026-05-06 19:55 | -20.24775 | -40.28007 | 152 ft | 132 kts | 208° |
| 2026-05-06 19:55 | -20.25771 | -40.28665 | 9 ft | 120 kts | 211° |
| 2026-05-06 19:55 | -20.26217 | -40.28958 | 7 ft | 105 kts | 211° |
| 2026-05-06 19:56 | -20.26650 | -40.29261 | 12 ft | 41 kts | 224° |
| 2026-05-06 19:56 | -20.26696 | -40.29409 | 10 ft | 13 kts | 335° |
| 2026-05-06 19:56 | -20.26674 | -40.29388 | 11 ft | 1 kts | 159° |
| 2026-05-06 19:56 | -20.26677 | -40.29390 | 11 ft | 0 kts | 208° |
| 2026-05-06 19:57 | -20.26686 | -40.29393 | 11 ft | 14 kts | 195° |
| 2026-05-06 19:57 | -20.26730 | -40.29363 | 10 ft | 5 kts | 41° |
| 2026-05-06 19:57 | -20.26645 | -40.29332 | 11 ft | 25 kts | 41° |
| 2026-05-06 19:58 | -20.26532 | -40.29192 | 12 ft | 19 kts | 47° |
| 2026-05-06 19:58 | -20.26450 | -40.29120 | 11 ft | 13 kts | 32° |
| 2026-05-06 19:58 | -20.26392 | -40.29119 | 11 ft | 8 kts | 338° |
| 2026-05-06 19:58 | -20.26354 | -40.29134 | 11 ft | 0 kts | 342° |
| 2026-05-06 19:59 | -20.26355 | -40.29134 | 11 ft | 0 kts | 342° |
| 2026-05-06 19:59 | -20.26356 | -40.29134 | 11 ft | 0 kts | 342° |
| 2026-05-06 20:00 | -20.26290 | -40.29152 | 12 ft | 20 kts | 349° |
| 2026-05-06 20:00 | -20.26100 | -40.29068 | 10 ft | 35 kts | 33° |
| 2026-05-06 20:00 | -20.25902 | -40.28931 | 10 ft | 33 kts | 32° |
| 2026-05-06 20:00 | -20.25771 | -40.28842 | 10 ft | 18 kts | 32° |
| 2026-05-06 20:01 | -20.25699 | -40.28820 | 11 ft | 6 kts | 316° |
| 2026-05-06 20:01 | -20.25691 | -40.28836 | 12 ft | 0 kts | 302° |